createdAt,value
2022-09-10T17:44:20.969Z,4.80
2022-09-10T17:47:19.169Z,4.45
2022-09-10T17:49:58.427Z,4.25
2022-09-10T17:52:25.907Z,4.50
2022-09-10T17:54:53.945Z,5.03
2022-09-10T17:57:27.962Z,5.00
2022-09-10T18:02:22.020Z,4.18
2022-09-10T18:04:50.275Z,4.85
2022-09-10T18:07:17.272Z,5.55
2022-09-10T18:09:44.089Z,5.15
2022-09-10T18:12:11.257Z,4.55
2022-09-10T18:14:38.534Z,5.03
2022-09-10T18:17:05.489Z,5.22
2022-09-10T18:19:33.219Z,4.85
2022-09-10T18:22:01.533Z,6.82
2022-09-10T18:24:29.371Z,4.85
2022-09-10T18:26:57.586Z,5.38
2022-09-10T18:29:27.115Z,6.10
2022-09-10T18:31:56.431Z,5.13
2022-09-10T18:34:27.802Z,5.70
2022-09-10T18:37:01.246Z,5.43
2022-09-10T18:39:30.531Z,5.88
2022-09-10T18:42:00.935Z,5.65
2022-09-10T18:44:39.023Z,6.20
2022-09-10T18:47:17.657Z,7.10
2022-09-10T18:49:50.585Z,7.03
2022-09-10T18:52:24.109Z,6.90
2022-09-10T18:54:51.513Z,7.80
2022-09-10T18:57:25.114Z,9.60
2022-09-10T18:59:54.098Z,9.00
2022-09-10T19:02:21.251Z,10.93
2022-09-10T19:05:09.662Z,9.23
2022-09-10T19:07:42.123Z,9.65
2022-09-10T19:10:16.486Z,10.10
2022-09-10T19:12:43.942Z,9.20
2022-09-10T19:15:11.346Z,8.50
2022-09-10T19:17:38.219Z,9.07
2022-09-10T19:20:05.714Z,8.13
2022-09-10T19:22:33.839Z,9.43
2022-09-10T19:25:01.413Z,8.15
